sensor_id;sensor_type;location;lat;lon;timestamp;temperature;humidity
2465;DHT22;1244;54.326;10.074;2022-07-29T00:00:38;12.00;99.90
2465;DHT22;1244;54.326;10.074;2022-07-29T00:03:04;12.00;99.90
2465;DHT22;1244;54.326;10.074;2022-07-29T00:05:29;12.00;99.90
2465;DHT22;1244;54.326;10.074;2022-07-29T00:07:55;12.00;99.90
2465;DHT22;1244;54.326;10.074;2022-07-29T00:10:21;11.90;99.90
2465;DHT22;1244;54.326;10.074;2022-07-29T00:12:46;11.70;99.90
2465;DHT22;1244;54.326;10.074;2022-07-29T00:15:12;11.50;99.90
2465;DHT22;1244;54.326;10.074;2022-07-29T00:17:38;11.50;99.90
2465;DHT22;1244;54.326;10.074;2022-07-29T00:20:04;11.60;99.90
2465;DHT22;1244;54.326;10.074;2022-07-29T00:22:30;11.60;99.90
2465;DHT22;1244;54.326;10.074;2022-07-29T00:24:55;11.70;99.90
2465;DHT22;1244;54.326;10.074;2022-07-29T00:27:21;11.60;99.90
2465;DHT22;1244;54.326;10.074;2022-07-29T00:29:47;11.60;99.90
2465;DHT22;1244;54.326;10.074;2022-07-29T00:32:12;11.50;99.90
2465;DHT22;1244;54.326;10.074;2022-07-29T00:34:38;11.50;99.90
2465;DHT22;1244;54.326;10.074;2022-07-29T00:37:22;11.50;99.90
2465;DHT22;1244;54.326;10.074;2022-07-29T00:39:48;11.60;99.90
2465;DHT22;1244;54.326;10.074;2022-07-29T00:42:13;11.50;99.90
2465;DHT22;1244;54.326;10.074;2022-07-29T00:44:40;11.50;99.90
2465;DHT22;1244;54.326;10.074;2022-07-29T00:47:07;11.50;99.90
2465;DHT22;1244;54.326;10.074;2022-07-29T00:49:34;11.50;99.90
2465;DHT22;1244;54.326;10.074;2022-07-29T00:52:04;11.40;99.90
2465;DHT22;1244;54.326;10.074;2022-07-29T00:54:30;11.30;99.90
2465;DHT22;1244;54.326;10.074;2022-07-29T00:56:58;11.30;99.90
2465;DHT22;1244;54.326;10.074;2022-07-29T00:59:28;11.30;99.90
2465;DHT22;1244;54.326;10.074;2022-07-29T01:01:54;11.20;99.90
2465;DHT22;1244;54.326;10.074;2022-07-29T01:04:21;11.20;99.90
2465;DHT22;1244;54.326;10.074;2022-07-29T01:06:47;11.10;99.90
2465;DHT22;1244;54.326;10.074;2022-07-29T01:09:14;11.20;99.90
2465;DHT22;1244;54.326;10.074;2022-07-29T01:11:40;11.20;99.90
2465;DHT22;1244;54.326;10.074;2022-07-29T01:14:08;11.20;99.90
2465;DHT22;1244;54.326;10.074;2022-07-29T01:16:43;11.10;99.90
2465;DHT22;1244;54.326;10.074;2022-07-29T01:21:55;11.00;99.90
2465;DHT22;1244;54.326;10.074;2022-07-29T01:24:55;10.90;99.90
2465;DHT22;1244;54.326;10.074;2022-07-29T01:30:18;11.00;99.90
2465;DHT22;1244;54.326;10.074;2022-07-29T01:32:45;11.10;99.90
2465;DHT22;1244;54.326;10.074;2022-07-29T01:35:18;11.00;99.90
2465;DHT22;1244;54.326;10.074;2022-07-29T01:37:50;11.00;99.90
2465;DHT22;1244;54.326;10.074;2022-07-29T01:40:22;11.00;99.90
2465;DHT22;1244;54.326;10.074;2022-07-29T01:42:52;11.00;99.90
2465;DHT22;1244;54.326;10.074;2022-07-29T01:45:37;10.90;99.90
2465;DHT22;1244;54.326;10.074;2022-07-29T01:48:18;10.90;99.90
2465;DHT22;1244;54.326;10.074;2022-07-29T01:51:05;10.80;99.90
2465;DHT22;1244;54.326;10.074;2022-07-29T01:53:35;10.70;99.90
2465;DHT22;1244;54.326;10.074;2022-07-29T01:56:02;10.80;99.90
2465;DHT22;1244;54.326;10.074;2022-07-29T01:58:30;10.80;99.90
2465;DHT22;1244;54.326;10.074;2022-07-29T02:00:58;10.80;99.90
2465;DHT22;1244;54.326;10.074;2022-07-29T02:03:25;10.80;99.90
2465;DHT22;1244;54.326;10.074;2022-07-29T02:05:53;10.70;99.90
2465;DHT22;1244;54.326;10.074;2022-07-29T02:08:21;10.80;99.90
2465;DHT22;1244;54.326;10.074;2022-07-29T02:10:47;10.70;99.90
2465;DHT22;1244;54.326;10.074;2022-07-29T02:13:15;10.60;99.90
2465;DHT22;1244;54.326;10.074;2022-07-29T02:15:42;10.70;99.90
2465;DHT22;1244;54.326;10.074;2022-07-29T02:18:15;10.60;99.90
2465;DHT22;1244;54.326;10.074;2022-07-29T02:20:45;10.60;99.90
2465;DHT22;1244;54.326;10.074;2022-07-29T02:23:17;10.60;99.90
2465;DHT22;1244;54.326;10.074;2022-07-29T02:25:45;10.50;99.90
2465;DHT22;1244;54.326;10.074;2022-07-29T02:28:12;10.50;99.90
2465;DHT22;1244;54.326;10.074;2022-07-29T02:30:40;10.60;99.90
2465;DHT22;1244;54.326;10.074;2022-07-29T02:33:08;10.60;99.90
2465;DHT22;1244;54.326;10.074;2022-07-29T02:35:35;10.60;99.90
2465;DHT22;1244;54.326;10.074;2022-07-29T02:38:02;10.60;99.90
2465;DHT22;1244;54.326;10.074;2022-07-29T02:40:46;10.60;99.90
2465;DHT22;1244;54.326;10.074;2022-07-29T02:43:14;10.50;99.90
2465;DHT22;1244;54.326;10.074;2022-07-29T02:45:39;10.50;99.90
2465;DHT22;1244;54.326;10.074;2022-07-29T02:48:10;10.50;99.90
2465;DHT22;1244;54.326;10.074;2022-07-29T02:50:45;10.50;99.90
2465;DHT22;1244;54.326;10.074;2022-07-29T02:53:22;10.40;99.90
2465;DHT22;1244;54.326;10.074;2022-07-29T02:55:57;10.40;99.90
2465;DHT22;1244;54.326;10.074;2022-07-29T02:58:28;10.40;99.90
2465;DHT22;1244;54.326;10.074;2022-07-29T03:01:00;10.40;99.90
2465;DHT22;1244;54.326;10.074;2022-07-29T03:03:31;10.40;99.90
2465;DHT22;1244;54.326;10.074;2022-07-29T03:06:00;10.50;99.90
2465;DHT22;1244;54.326;10.074;2022-07-29T03:08:26;10.50;99.90
2465;DHT22;1244;54.326;10.074;2022-07-29T03:10:53;10.40;99.90
2465;DHT22;1244;54.326;10.074;2022-07-29T03:13:19;10.40;99.90
2465;DHT22;1244;54.326;10.074;2022-07-29T03:15:45;10.40;99.90
2465;DHT22;1244;54.326;10.074;2022-07-29T03:18:12;10.40;99.90
2465;DHT22;1244;54.326;10.074;2022-07-29T03:20:38;10.40;99.90
2465;DHT22;1244;54.326;10.074;2022-07-29T03:23:04;10.40;99.90
2465;DHT22;1244;54.326;10.074;2022-07-29T03:25:30;10.40;99.90
2465;DHT22;1244;54.326;10.074;2022-07-29T03:27:55;10.50;99.90
2465;DHT22;1244;54.326;10.074;2022-07-29T03:30:22;10.40;99.90
2465;DHT22;1244;54.326;10.074;2022-07-29T03:32:48;10.40;99.90
2465;DHT22;1244;54.326;10.074;2022-07-29T03:35:13;10.50;99.90
2465;DHT22;1244;54.326;10.074;2022-07-29T03:37:39;10.60;99.90
2465;DHT22;1244;54.326;10.074;2022-07-29T03:40:07;10.60;99.90
2465;DHT22;1244;54.326;10.074;2022-07-29T03:42:36;10.60;99.90
2465;DHT22;1244;54.326;10.074;2022-07-29T03:45:06;10.70;99.90
2465;DHT22;1244;54.326;10.074;2022-07-29T03:47:35;10.80;99.90
2465;DHT22;1244;54.326;10.074;2022-07-29T03:50:05;10.80;99.90
2465;DHT22;1244;54.326;10.074;2022-07-29T03:52:31;10.80;99.90
2465;DHT22;1244;54.326;10.074;2022-07-29T03:54:57;10.80;99.90
2465;DHT22;1244;54.326;10.074;2022-07-29T03:57:25;10.90;99.90
2465;DHT22;1244;54.326;10.074;2022-07-29T03:59:53;11.00;99.90
2465;DHT22;1244;54.326;10.074;2022-07-29T04:02:18;11.00;99.90
2465;DHT22;1244;54.326;10.074;2022-07-29T04:04:44;11.10;99.90
2465;DHT22;1244;54.326;10.074;2022-07-29T04:07:14;11.10;99.90
2465;DHT22;1244;54.326;10.074;2022-07-29T04:09:41;11.10;99.90
2465;DHT22;1244;54.326;10.074;2022-07-29T04:12:07;11.10;99.90
2465;DHT22;1244;54.326;10.074;2022-07-29T04:14:34;11.20;99.90
2465;DHT22;1244;54.326;10.074;2022-07-29T04:17:03;11.20;99.90
2465;DHT22;1244;54.326;10.074;2022-07-29T04:19:30;11.20;99.90
2465;DHT22;1244;54.326;10.074;2022-07-29T04:21:57;11.20;99.90
2465;DHT22;1244;54.326;10.074;2022-07-29T04:24:23;11.30;99.90
2465;DHT22;1244;54.326;10.074;2022-07-29T04:26:49;11.30;99.90
2465;DHT22;1244;54.326;10.074;2022-07-29T04:29:14;11.30;99.90
2465;DHT22;1244;54.326;10.074;2022-07-29T04:31:40;11.40;99.90
2465;DHT22;1244;54.326;10.074;2022-07-29T04:34:06;11.40;99.90
2465;DHT22;1244;54.326;10.074;2022-07-29T04:36:32;11.40;99.90
2465;DHT22;1244;54.326;10.074;2022-07-29T04:38:57;11.50;99.90
2465;DHT22;1244;54.326;10.074;2022-07-29T04:41:23;11.60;99.90
2465;DHT22;1244;54.326;10.074;2022-07-29T04:43:49;11.60;99.90
2465;DHT22;1244;54.326;10.074;2022-07-29T04:46:14;11.60;99.90
2465;DHT22;1244;54.326;10.074;2022-07-29T04:48:40;11.70;99.90
2465;DHT22;1244;54.326;10.074;2022-07-29T04:51:05;11.70;99.90
2465;DHT22;1244;54.326;10.074;2022-07-29T04:53:31;11.80;99.90
2465;DHT22;1244;54.326;10.074;2022-07-29T04:55:56;11.80;99.90
2465;DHT22;1244;54.326;10.074;2022-07-29T04:58:22;11.80;99.90
2465;DHT22;1244;54.326;10.074;2022-07-29T05:00:49;11.80;99.90
2465;DHT22;1244;54.326;10.074;2022-07-29T05:03:14;11.90;99.90
2465;DHT22;1244;54.326;10.074;2022-07-29T05:05:40;12.00;99.90
2465;DHT22;1244;54.326;10.074;2022-07-29T05:08:06;12.00;99.90
2465;DHT22;1244;54.326;10.074;2022-07-29T05:10:33;12.10;99.90
2465;DHT22;1244;54.326;10.074;2022-07-29T05:13:02;12.10;99.90
2465;DHT22;1244;54.326;10.074;2022-07-29T05:15:28;12.20;99.90
2465;DHT22;1244;54.326;10.074;2022-07-29T05:17:53;12.30;99.90
2465;DHT22;1244;54.326;10.074;2022-07-29T05:20:19;12.30;99.90
2465;DHT22;1244;54.326;10.074;2022-07-29T05:22:51;12.40;99.90
2465;DHT22;1244;54.326;10.074;2022-07-29T05:25:16;12.50;99.90
2465;DHT22;1244;54.326;10.074;2022-07-29T05:27:42;12.60;99.90
2465;DHT22;1244;54.326;10.074;2022-07-29T05:30:08;12.70;99.90
2465;DHT22;1244;54.326;10.074;2022-07-29T05:32:33;12.80;99.90
2465;DHT22;1244;54.326;10.074;2022-07-29T05:34:59;12.90;99.90
2465;DHT22;1244;54.326;10.074;2022-07-29T05:37:24;13.00;99.90
2465;DHT22;1244;54.326;10.074;2022-07-29T05:39:50;13.10;99.90
2465;DHT22;1244;54.326;10.074;2022-07-29T05:42:15;13.20;99.90
2465;DHT22;1244;54.326;10.074;2022-07-29T05:44:41;13.40;99.90
2465;DHT22;1244;54.326;10.074;2022-07-29T05:47:06;13.50;99.90
2465;DHT22;1244;54.326;10.074;2022-07-29T05:49:32;13.60;99.90
2465;DHT22;1244;54.326;10.074;2022-07-29T05:51:58;13.70;99.90
2465;DHT22;1244;54.326;10.074;2022-07-29T05:54:24;13.90;99.90
2465;DHT22;1244;54.326;10.074;2022-07-29T05:56:49;14.10;99.90
2465;DHT22;1244;54.326;10.074;2022-07-29T05:59:15;14.20;99.90
2465;DHT22;1244;54.326;10.074;2022-07-29T06:01:40;14.40;99.90
2465;DHT22;1244;54.326;10.074;2022-07-29T06:04:07;14.50;99.90
2465;DHT22;1244;54.326;10.074;2022-07-29T06:06:33;14.70;99.90
2465;DHT22;1244;54.326;10.074;2022-07-29T06:09:00;14.70;99.90
2465;DHT22;1244;54.326;10.074;2022-07-29T06:11:26;14.80;99.90
2465;DHT22;1244;54.326;10.074;2022-07-29T06:13:52;14.90;99.90
2465;DHT22;1244;54.326;10.074;2022-07-29T06:16:18;15.00;99.90
2465;DHT22;1244;54.326;10.074;2022-07-29T06:18:44;15.10;99.90
2465;DHT22;1244;54.326;10.074;2022-07-29T06:21:09;15.10;99.90
2465;DHT22;1244;54.326;10.074;2022-07-29T06:23:39;15.10;99.90
2465;DHT22;1244;54.326;10.074;2022-07-29T06:26:05;15.10;99.90
2465;DHT22;1244;54.326;10.074;2022-07-29T06:28:32;15.10;99.90
2465;DHT22;1244;54.326;10.074;2022-07-29T06:30:58;15.10;99.90
2465;DHT22;1244;54.326;10.074;2022-07-29T06:33:23;15.20;99.90
2465;DHT22;1244;54.326;10.074;2022-07-29T06:35:49;15.20;99.90
2465;DHT22;1244;54.326;10.074;2022-07-29T06:38:16;15.30;99.90
2465;DHT22;1244;54.326;10.074;2022-07-29T06:40:42;15.40;99.90
2465;DHT22;1244;54.326;10.074;2022-07-29T06:43:32;15.50;99.90
2465;DHT22;1244;54.326;10.074;2022-07-29T06:46:08;15.70;99.90
2465;DHT22;1244;54.326;10.074;2022-07-29T06:48:35;15.80;99.90
2465;DHT22;1244;54.326;10.074;2022-07-29T06:51:04;15.80;99.90
2465;DHT22;1244;54.326;10.074;2022-07-29T06:53:31;16.00;99.90
2465;DHT22;1244;54.326;10.074;2022-07-29T06:55:57;16.30;99.90
2465;DHT22;1244;54.326;10.074;2022-07-29T06:58:24;16.50;99.90
2465;DHT22;1244;54.326;10.074;2022-07-29T07:00:50;16.70;99.90
2465;DHT22;1244;54.326;10.074;2022-07-29T07:03:17;16.80;99.90
2465;DHT22;1244;54.326;10.074;2022-07-29T07:05:43;17.00;99.90
2465;DHT22;1244;54.326;10.074;2022-07-29T07:08:09;17.10;99.90
2465;DHT22;1244;54.326;10.074;2022-07-29T07:10:35;17.10;99.90
2465;DHT22;1244;54.326;10.074;2022-07-29T07:13:01;17.10;99.90
2465;DHT22;1244;54.326;10.074;2022-07-29T07:15:27;17.00;99.90
2465;DHT22;1244;54.326;10.074;2022-07-29T07:17:53;17.00;99.90
2465;DHT22;1244;54.326;10.074;2022-07-29T07:20:19;17.00;99.90
2465;DHT22;1244;54.326;10.074;2022-07-29T07:22:45;16.80;99.90
2465;DHT22;1244;54.326;10.074;2022-07-29T07:25:11;16.80;99.90
2465;DHT22;1244;54.326;10.074;2022-07-29T07:27:37;16.90;99.90
2465;DHT22;1244;54.326;10.074;2022-07-29T07:30:04;17.30;99.90
2465;DHT22;1244;54.326;10.074;2022-07-29T07:32:32;17.60;99.90
2465;DHT22;1244;54.326;10.074;2022-07-29T07:34:58;17.70;99.90
2465;DHT22;1244;54.326;10.074;2022-07-29T07:37:24;17.90;99.90
2465;DHT22;1244;54.326;10.074;2022-07-29T07:39:50;18.00;99.90
2465;DHT22;1244;54.326;10.074;2022-07-29T07:42:16;18.00;99.90
2465;DHT22;1244;54.326;10.074;2022-07-29T07:44:42;18.00;99.90
2465;DHT22;1244;54.326;10.074;2022-07-29T07:47:07;18.00;99.90
2465;DHT22;1244;54.326;10.074;2022-07-29T07:49:33;18.00;99.90
2465;DHT22;1244;54.326;10.074;2022-07-29T07:51:59;18.20;99.90
2465;DHT22;1244;54.326;10.074;2022-07-29T07:54:24;18.40;99.90
2465;DHT22;1244;54.326;10.074;2022-07-29T07:56:50;18.50;99.90
2465;DHT22;1244;54.326;10.074;2022-07-29T07:59:16;18.70;99.90
2465;DHT22;1244;54.326;10.074;2022-07-29T08:01:42;18.90;99.90
2465;DHT22;1244;54.326;10.074;2022-07-29T08:04:08;19.10;99.90
2465;DHT22;1244;54.326;10.074;2022-07-29T08:06:34;19.40;99.90
2465;DHT22;1244;54.326;10.074;2022-07-29T08:09:02;19.40;99.90
2465;DHT22;1244;54.326;10.074;2022-07-29T08:11:28;19.80;99.90
2465;DHT22;1244;54.326;10.074;2022-07-29T08:13:54;19.80;99.90
2465;DHT22;1244;54.326;10.074;2022-07-29T08:16:19;20.00;99.90
2465;DHT22;1244;54.326;10.074;2022-07-29T08:18:45;20.20;99.90
2465;DHT22;1244;54.326;10.074;2022-07-29T08:21:12;20.20;99.90
2465;DHT22;1244;54.326;10.074;2022-07-29T08:23:37;20.10;99.90
2465;DHT22;1244;54.326;10.074;2022-07-29T08:26:11;19.90;99.90
2465;DHT22;1244;54.326;10.074;2022-07-29T08:28:38;19.70;99.90
2465;DHT22;1244;54.326;10.074;2022-07-29T08:31:04;19.40;99.90
2465;DHT22;1244;54.326;10.074;2022-07-29T08:33:30;19.40;99.90
2465;DHT22;1244;54.326;10.074;2022-07-29T08:35:55;19.30;99.90
2465;DHT22;1244;54.326;10.074;2022-07-29T08:38:21;19.30;99.90
2465;DHT22;1244;54.326;10.074;2022-07-29T08:40:46;19.20;99.90
2465;DHT22;1244;54.326;10.074;2022-07-29T08:43:12;19.20;99.90
2465;DHT22;1244;54.326;10.074;2022-07-29T08:45:44;19.30;99.90
2465;DHT22;1244;54.326;10.074;2022-07-29T08:48:11;19.30;99.90
2465;DHT22;1244;54.326;10.074;2022-07-29T08:50:38;19.40;99.90
2465;DHT22;1244;54.326;10.074;2022-07-29T08:53:04;19.70;99.90
2465;DHT22;1244;54.326;10.074;2022-07-29T08:55:30;19.80;99.90
2465;DHT22;1244;54.326;10.074;2022-07-29T08:57:56;20.00;99.90
2465;DHT22;1244;54.326;10.074;2022-07-29T09:00:23;20.30;99.90
2465;DHT22;1244;54.326;10.074;2022-07-29T09:02:56;20.60;99.90
2465;DHT22;1244;54.326;10.074;2022-07-29T09:05:23;21.10;99.90
2465;DHT22;1244;54.326;10.074;2022-07-29T09:07:50;21.20;99.90
2465;DHT22;1244;54.326;10.074;2022-07-29T09:10:15;21.30;99.90
2465;DHT22;1244;54.326;10.074;2022-07-29T09:12:41;21.30;99.90
2465;DHT22;1244;54.326;10.074;2022-07-29T09:15:07;21.30;99.90
2465;DHT22;1244;54.326;10.074;2022-07-29T09:17:46;21.60;99.90
2465;DHT22;1244;54.326;10.074;2022-07-29T09:20:18;21.70;99.90
2465;DHT22;1244;54.326;10.074;2022-07-29T09:22:45;21.60;99.90
2465;DHT22;1244;54.326;10.074;2022-07-29T09:25:38;21.50;99.90
2465;DHT22;1244;54.326;10.074;2022-07-29T09:28:15;21.50;99.90
2465;DHT22;1244;54.326;10.074;2022-07-29T09:30:51;21.60;99.90
2465;DHT22;1244;54.326;10.074;2022-07-29T09:33:17;21.70;99.90
2465;DHT22;1244;54.326;10.074;2022-07-29T09:35:43;21.70;99.90
2465;DHT22;1244;54.326;10.074;2022-07-29T09:38:13;21.80;99.90
2465;DHT22;1244;54.326;10.074;2022-07-29T09:40:39;21.70;99.90
2465;DHT22;1244;54.326;10.074;2022-07-29T09:43:12;21.90;99.90
2465;DHT22;1244;54.326;10.074;2022-07-29T09:45:38;21.80;99.90
2465;DHT22;1244;54.326;10.074;2022-07-29T09:48:15;21.90;99.90
2465;DHT22;1244;54.326;10.074;2022-07-29T09:50:44;22.20;99.90
2465;DHT22;1244;54.326;10.074;2022-07-29T09:53:10;22.70;99.90
2465;DHT22;1244;54.326;10.074;2022-07-29T09:55:51;22.40;99.90
2465;DHT22;1244;54.326;10.074;2022-07-29T09:58:18;22.40;99.90
2465;DHT22;1244;54.326;10.074;2022-07-29T10:00:44;22.50;99.90
2465;DHT22;1244;54.326;10.074;2022-07-29T10:03:11;22.20;99.90
2465;DHT22;1244;54.326;10.074;2022-07-29T10:05:37;21.90;99.90
2465;DHT22;1244;54.326;10.074;2022-07-29T10:08:03;21.60;99.90
2465;DHT22;1244;54.326;10.074;2022-07-29T10:10:34;21.80;99.90
2465;DHT22;1244;54.326;10.074;2022-07-29T10:13:03;22.10;99.90
2465;DHT22;1244;54.326;10.074;2022-07-29T10:15:32;22.40;99.90
2465;DHT22;1244;54.326;10.074;2022-07-29T10:17:59;22.50;99.90
2465;DHT22;1244;54.326;10.074;2022-07-29T10:20:26;22.40;99.90
2465;DHT22;1244;54.326;10.074;2022-07-29T10:22:52;22.40;99.90
2465;DHT22;1244;54.326;10.074;2022-07-29T10:25:19;22.50;99.90
2465;DHT22;1244;54.326;10.074;2022-07-29T10:27:46;22.60;99.90
2465;DHT22;1244;54.326;10.074;2022-07-29T10:30:13;22.60;99.90
2465;DHT22;1244;54.326;10.074;2022-07-29T10:44:21;24.20;99.90
2465;DHT22;1244;54.326;10.074;2022-07-29T10:46:48;25.00;99.90
2465;DHT22;1244;54.326;10.074;2022-07-29T10:49:25;26.30;99.90
2465;DHT22;1244;54.326;10.074;2022-07-29T10:52:06;26.90;99.90
2465;DHT22;1244;54.326;10.074;2022-07-29T10:57:20;27.20;99.90
2465;DHT22;1244;54.326;10.074;2022-07-29T11:02:40;27.20;99.90
2465;DHT22;1244;54.326;10.074;2022-07-29T11:05:12;27.10;99.90
2465;DHT22;1244;54.326;10.074;2022-07-29T11:10:25;27.10;99.90
2465;DHT22;1244;54.326;10.074;2022-07-29T11:12:51;27.10;99.90
2465;DHT22;1244;54.326;10.074;2022-07-29T11:15:21;26.80;99.90
2465;DHT22;1244;54.326;10.074;2022-07-29T11:18:05;26.00;99.90
2465;DHT22;1244;54.326;10.074;2022-07-29T11:20:47;26.00;99.90
2465;DHT22;1244;54.326;10.074;2022-07-29T11:23:31;26.10;99.90
2465;DHT22;1244;54.326;10.074;2022-07-29T11:29:00;25.30;99.90
2465;DHT22;1244;54.326;10.074;2022-07-29T11:31:38;25.10;99.90
2465;DHT22;1244;54.326;10.074;2022-07-29T11:39:32;24.80;99.90
2465;DHT22;1244;54.326;10.074;2022-07-29T11:44:54;24.50;99.90
2465;DHT22;1244;54.326;10.074;2022-07-29T11:47:24;24.70;99.90
2465;DHT22;1244;54.326;10.074;2022-07-29T11:49:51;24.30;99.90
2465;DHT22;1244;54.326;10.074;2022-07-29T11:52:18;24.60;99.90
2465;DHT22;1244;54.326;10.074;2022-07-29T11:54:44;24.60;99.90
2465;DHT22;1244;54.326;10.074;2022-07-29T11:57:12;25.10;99.90
2465;DHT22;1244;54.326;10.074;2022-07-29T11:59:40;25.70;99.90
2465;DHT22;1244;54.326;10.074;2022-07-29T12:02:07;26.10;99.90
2465;DHT22;1244;54.326;10.074;2022-07-29T12:04:33;26.50;99.90
2465;DHT22;1244;54.326;10.074;2022-07-29T12:07:00;26.20;99.90
2465;DHT22;1244;54.326;10.074;2022-07-29T12:09:26;25.80;99.90
2465;DHT22;1244;54.326;10.074;2022-07-29T12:11:58;26.00;99.90
2465;DHT22;1244;54.326;10.074;2022-07-29T12:14:32;26.00;99.90
2465;DHT22;1244;54.326;10.074;2022-07-29T12:16:59;26.00;99.90
2465;DHT22;1244;54.326;10.074;2022-07-29T12:19:26;25.70;99.90
2465;DHT22;1244;54.326;10.074;2022-07-29T12:21:53;25.70;99.90
2465;DHT22;1244;54.326;10.074;2022-07-29T12:24:24;25.60;99.90
2465;DHT22;1244;54.326;10.074;2022-07-29T12:26:54;25.10;99.90
2465;DHT22;1244;54.326;10.074;2022-07-29T12:29:21;25.30;99.90
2465;DHT22;1244;54.326;10.074;2022-07-29T12:31:51;25.90;99.90
2465;DHT22;1244;54.326;10.074;2022-07-29T12:34:20;25.80;99.90
2465;DHT22;1244;54.326;10.074;2022-07-29T12:36:48;25.40;99.90
2465;DHT22;1244;54.326;10.074;2022-07-29T12:39:16;25.10;99.90
2465;DHT22;1244;54.326;10.074;2022-07-29T12:41:42;25.30;99.90
2465;DHT22;1244;54.326;10.074;2022-07-29T12:44:08;25.40;99.90
2465;DHT22;1244;54.326;10.074;2022-07-29T12:46:33;25.30;99.90
2465;DHT22;1244;54.326;10.074;2022-07-29T12:48:59;25.20;99.90
2465;DHT22;1244;54.326;10.074;2022-07-29T12:51:33;25.30;99.90
2465;DHT22;1244;54.326;10.074;2022-07-29T12:54:13;25.50;99.90
2465;DHT22;1244;54.326;10.074;2022-07-29T12:56:40;25.00;99.90
2465;DHT22;1244;54.326;10.074;2022-07-29T12:59:20;25.00;99.90
2465;DHT22;1244;54.326;10.074;2022-07-29T13:01:47;25.30;99.90
2465;DHT22;1244;54.326;10.074;2022-07-29T13:04:31;25.30;99.90
2465;DHT22;1244;54.326;10.074;2022-07-29T13:07:01;25.10;99.90
2465;DHT22;1244;54.326;10.074;2022-07-29T13:09:43;25.70;99.90
2465;DHT22;1244;54.326;10.074;2022-07-29T13:12:11;26.10;99.90
2465;DHT22;1244;54.326;10.074;2022-07-29T13:14:47;25.60;99.90
2465;DHT22;1244;54.326;10.074;2022-07-29T13:17:21;25.50;99.90
2465;DHT22;1244;54.326;10.074;2022-07-29T13:20:04;24.90;99.90
2465;DHT22;1244;54.326;10.074;2022-07-29T13:22:30;24.60;99.90
2465;DHT22;1244;54.326;10.074;2022-07-29T13:24:56;24.30;99.90
2465;DHT22;1244;54.326;10.074;2022-07-29T13:27:24;24.20;99.90
2465;DHT22;1244;54.326;10.074;2022-07-29T13:29:51;24.20;99.90
2465;DHT22;1244;54.326;10.074;2022-07-29T13:32:18;24.10;99.90
2465;DHT22;1244;54.326;10.074;2022-07-29T13:34:44;23.90;99.90
2465;DHT22;1244;54.326;10.074;2022-07-29T13:37:10;23.90;99.90
2465;DHT22;1244;54.326;10.074;2022-07-29T13:39:35;24.00;99.90
2465;DHT22;1244;54.326;10.074;2022-07-29T13:42:02;23.70;99.90
2465;DHT22;1244;54.326;10.074;2022-07-29T13:44:28;23.80;99.90
2465;DHT22;1244;54.326;10.074;2022-07-29T13:46:53;23.70;99.90
2465;DHT22;1244;54.326;10.074;2022-07-29T13:49:19;23.60;99.90
2465;DHT22;1244;54.326;10.074;2022-07-29T13:51:44;23.50;99.90
2465;DHT22;1244;54.326;10.074;2022-07-29T13:54:10;23.50;99.90
2465;DHT22;1244;54.326;10.074;2022-07-29T13:56:35;23.60;99.90
2465;DHT22;1244;54.326;10.074;2022-07-29T13:59:01;23.50;99.90
2465;DHT22;1244;54.326;10.074;2022-07-29T14:01:27;23.30;99.90
2465;DHT22;1244;54.326;10.074;2022-07-29T14:03:53;23.40;99.90
2465;DHT22;1244;54.326;10.074;2022-07-29T14:06:18;23.40;99.90
2465;DHT22;1244;54.326;10.074;2022-07-29T14:08:44;23.40;99.90
2465;DHT22;1244;54.326;10.074;2022-07-29T14:11:10;23.20;99.90
2465;DHT22;1244;54.326;10.074;2022-07-29T14:13:35;23.30;99.90
2465;DHT22;1244;54.326;10.074;2022-07-29T14:16:01;23.30;99.90
2465;DHT22;1244;54.326;10.074;2022-07-29T14:18:29;23.60;99.90
2465;DHT22;1244;54.326;10.074;2022-07-29T14:20:55;23.60;99.90
2465;DHT22;1244;54.326;10.074;2022-07-29T14:23:21;23.50;99.90
2465;DHT22;1244;54.326;10.074;2022-07-29T14:25:47;23.50;99.90
2465;DHT22;1244;54.326;10.074;2022-07-29T14:28:12;23.60;99.90
2465;DHT22;1244;54.326;10.074;2022-07-29T14:30:38;23.50;99.90
2465;DHT22;1244;54.326;10.074;2022-07-29T14:33:03;23.40;99.90
2465;DHT22;1244;54.326;10.074;2022-07-29T14:35:29;23.30;99.90
2465;DHT22;1244;54.326;10.074;2022-07-29T14:37:54;23.40;99.90
2465;DHT22;1244;54.326;10.074;2022-07-29T14:40:20;23.30;99.90
2465;DHT22;1244;54.326;10.074;2022-07-29T14:42:45;23.30;99.90
2465;DHT22;1244;54.326;10.074;2022-07-29T14:45:11;23.40;99.90
2465;DHT22;1244;54.326;10.074;2022-07-29T14:47:38;23.10;99.90
2465;DHT22;1244;54.326;10.074;2022-07-29T14:50:04;23.50;99.90
2465;DHT22;1244;54.326;10.074;2022-07-29T14:52:30;23.80;99.90
2465;DHT22;1244;54.326;10.074;2022-07-29T14:54:57;23.70;99.90
2465;DHT22;1244;54.326;10.074;2022-07-29T14:57:22;24.00;99.90
2465;DHT22;1244;54.326;10.074;2022-07-29T14:59:48;24.20;99.90
2465;DHT22;1244;54.326;10.074;2022-07-29T15:02:13;24.20;99.90
2465;DHT22;1244;54.326;10.074;2022-07-29T15:04:39;24.50;99.90
2465;DHT22;1244;54.326;10.074;2022-07-29T15:07:04;24.50;99.90
2465;DHT22;1244;54.326;10.074;2022-07-29T15:09:30;24.60;99.90
2465;DHT22;1244;54.326;10.074;2022-07-29T15:11:56;24.40;99.90
2465;DHT22;1244;54.326;10.074;2022-07-29T15:14:21;24.20;99.90
2465;DHT22;1244;54.326;10.074;2022-07-29T15:16:47;23.90;99.90
2465;DHT22;1244;54.326;10.074;2022-07-29T15:19:12;23.80;99.90
2465;DHT22;1244;54.326;10.074;2022-07-29T15:21:38;23.90;99.90
2465;DHT22;1244;54.326;10.074;2022-07-29T15:24:04;23.80;99.90
2465;DHT22;1244;54.326;10.074;2022-07-29T15:26:30;23.80;99.90
2465;DHT22;1244;54.326;10.074;2022-07-29T15:28:55;23.70;99.90
2465;DHT22;1244;54.326;10.074;2022-07-29T15:31:21;23.80;99.90
2465;DHT22;1244;54.326;10.074;2022-07-29T15:33:47;23.70;99.90
2465;DHT22;1244;54.326;10.074;2022-07-29T15:36:13;23.40;99.90
2465;DHT22;1244;54.326;10.074;2022-07-29T15:38:39;23.00;99.90
2465;DHT22;1244;54.326;10.074;2022-07-29T15:41:08;22.90;99.90
2465;DHT22;1244;54.326;10.074;2022-07-29T15:43:33;22.80;99.90
2465;DHT22;1244;54.326;10.074;2022-07-29T15:46:00;22.50;99.90
2465;DHT22;1244;54.326;10.074;2022-07-29T15:48:45;22.50;99.90
2465;DHT22;1244;54.326;10.074;2022-07-29T15:51:10;22.30;99.90
2465;DHT22;1244;54.326;10.074;2022-07-29T15:53:36;22.20;99.90
2465;DHT22;1244;54.326;10.074;2022-07-29T15:56:02;22.40;99.90
2465;DHT22;1244;54.326;10.074;2022-07-29T15:58:27;22.50;99.90
2465;DHT22;1244;54.326;10.074;2022-07-29T16:00:53;22.80;99.90
2465;DHT22;1244;54.326;10.074;2022-07-29T16:03:18;22.90;99.90
2465;DHT22;1244;54.326;10.074;2022-07-29T16:05:45;23.00;99.90
2465;DHT22;1244;54.326;10.074;2022-07-29T16:08:11;23.00;99.90
2465;DHT22;1244;54.326;10.074;2022-07-29T16:10:36;23.00;99.90
2465;DHT22;1244;54.326;10.074;2022-07-29T16:13:02;22.90;99.90
2465;DHT22;1244;54.326;10.074;2022-07-29T16:15:28;22.70;99.90
2465;DHT22;1244;54.326;10.074;2022-07-29T16:17:53;22.50;99.90
2465;DHT22;1244;54.326;10.074;2022-07-29T16:20:19;22.50;99.90
2465;DHT22;1244;54.326;10.074;2022-07-29T16:22:45;22.40;99.90
2465;DHT22;1244;54.326;10.074;2022-07-29T16:25:10;22.20;99.90